createdAt,value
2018-08-28T00:00:02.897Z,99.5
2018-08-28T00:05:05.788Z,99.5
2018-08-28T00:10:03.451Z,99.5
2018-08-28T00:15:05.367Z,99.4
2018-08-28T00:20:02.744Z,99.4
2018-08-28T00:25:03.062Z,99.5
2018-08-28T00:30:03.389Z,99.6
2018-08-28T00:35:05.266Z,99.9
2018-08-28T00:40:08.048Z,99.9
2018-08-28T00:45:08.341Z,99.9
2018-08-28T00:50:18.518Z,99.9
2018-08-28T00:55:03.068Z,99.9
2018-08-28T01:00:05.996Z,99.9
2018-08-28T01:05:17.904Z,99.9
2018-08-28T01:10:02.617Z,99.9
2018-08-28T01:15:02.922Z,99.9
2018-08-28T01:20:05.809Z,99.9
2018-08-28T01:25:05.180Z,99.9
2018-08-28T01:30:03.462Z,99.9
2018-08-28T01:35:02.752Z,99.9
2018-08-28T01:40:03.482Z,99.9
2018-08-28T01:45:07.974Z,99.9
2018-08-28T01:50:05.825Z,99.9
2018-08-28T01:55:11.099Z,99.9
2018-08-28T02:00:13.605Z,99.9
2018-08-28T02:05:02.659Z,99.9
2018-08-28T02:10:06.043Z,99.9
2018-08-28T02:15:02.807Z,99.9
2018-08-28T02:20:10.728Z,99.9
2018-08-28T02:25:06.050Z,99.9
2018-08-28T02:30:08.368Z,99.9
2018-08-28T02:35:07.727Z,99.9
2018-08-28T02:40:06.057Z,99.9
2018-08-28T02:45:02.806Z,99.9
2018-08-28T02:50:08.210Z,99.9
2018-08-28T02:55:03.419Z,99.9
2018-08-28T03:00:05.525Z,99.9
2018-08-28T03:05:03.326Z,99.9
2018-08-28T03:10:03.095Z,99.9
2018-08-28T03:15:03.483Z,99.9
2018-08-28T03:20:05.470Z,99.9
2018-08-28T03:25:05.735Z,99.9
2018-08-28T03:30:08.129Z,99.9
2018-08-28T03:35:03.474Z,99.9
2018-08-28T03:40:03.281Z,99.9
2018-08-28T03:45:05.086Z,99.9
2018-08-28T03:50:03.408Z,99.9
2018-08-28T03:55:02.719Z,99.9
2018-08-28T04:00:05.522Z,99.9
2018-08-28T04:05:05.811Z,99.9
2018-08-28T04:10:05.417Z,99.9
2018-08-28T04:15:03.145Z,99.9
2018-08-28T04:20:10.472Z,99.9
2018-08-28T04:25:05.713Z,99.9
2018-08-28T04:30:03.411Z,99.9
2018-08-28T04:35:15.414Z,99.9
2018-08-28T04:40:07.674Z,99.9
2018-08-28T04:45:05.355Z,99.9
2018-08-28T04:50:08.246Z,99.9
2018-08-28T04:55:05.341Z,99.9
2018-08-28T05:00:05.136Z,99.9
2018-08-28T05:05:02.933Z,99.9
2018-08-28T05:10:10.416Z,99.9
2018-08-28T05:15:03.046Z,99.9
2018-08-28T05:20:11.075Z,99.9
2018-08-28T05:25:05.256Z,99.9
2018-08-28T05:30:15.205Z,99.9
2018-08-28T05:35:03.044Z,99.9
2018-08-28T05:40:10.426Z,99.9
2018-08-28T05:45:08.281Z,99.9
2018-08-28T05:50:02.587Z,99.9
2018-08-28T05:55:02.857Z,99.9
2018-08-28T06:00:06.004Z,99.9
2018-08-28T06:05:02.791Z,99.9
2018-08-28T06:10:12.672Z,99.9
2018-08-28T06:15:10.580Z,99.9
2018-08-28T06:20:02.939Z,99.9
2018-08-28T06:25:03.223Z,99.5
2018-08-28T06:30:05.974Z,99.1
2018-08-28T06:35:05.195Z,98.6
2018-08-28T06:40:15.715Z,99
2018-08-28T06:45:03.313Z,98.9
2018-08-28T06:50:10.187Z,97.1
2018-08-28T06:55:05.438Z,97.2
2018-08-28T07:00:02.699Z,97.1
2018-08-28T07:05:03.103Z,97.1
2018-08-28T07:10:02.978Z,96.5
2018-08-28T07:15:05.999Z,96.5
2018-08-28T07:20:05.916Z,96.2
2018-08-28T07:25:02.702Z,96.1
2018-08-28T07:30:03.026Z,96.5
2018-08-28T07:35:08.406Z,95.2
2018-08-28T07:40:03.102Z,95.2
2018-08-28T07:45:05.189Z,94.5
2018-08-28T07:50:10.238Z,94.7
2018-08-28T07:55:05.405Z,94.3
2018-08-28T08:00:27.991Z,92.4
2018-08-28T08:05:03.309Z,92.4
2018-08-28T08:10:08.187Z,92.4
2018-08-28T08:15:16.168Z,91.5
2018-08-28T08:20:02.984Z,91.5
2018-08-28T08:25:02.724Z,91.6
2018-08-28T08:30:05.839Z,91.9
2018-08-28T08:35:02.662Z,91.9
2018-08-28T08:40:03.521Z,92
2018-08-28T08:45:05.379Z,90.4
2018-08-28T08:50:05.285Z,87.7
2018-08-28T08:55:03.192Z,87.7
2018-08-28T09:00:05.132Z,86.2
2018-08-28T09:05:05.457Z,87.7
2018-08-28T09:10:05.778Z,87.2
2018-08-28T09:15:22.856Z,84
2018-08-28T09:20:08.366Z,85.8
2018-08-28T09:25:02.556Z,85.9
2018-08-28T09:30:07.923Z,82.8
2018-08-28T09:35:10.973Z,82
2018-08-28T09:40:02.889Z,82
2018-08-28T09:45:13.285Z,81.7
2018-08-28T09:50:03.073Z,81.7
2018-08-28T09:55:05.230Z,74.5
2018-08-28T10:00:03.517Z,74.4
2018-08-28T10:05:05.414Z,74.9
2018-08-28T10:10:08.224Z,70.1
2018-08-28T10:15:16.173Z,70.2
2018-08-28T10:20:05.097Z,69.5
2018-08-28T10:25:02.926Z,69.4
2018-08-28T10:30:03.197Z,67.4
2018-08-28T10:35:05.148Z,65.9
2018-08-28T10:40:05.771Z,66.3
2018-08-28T10:45:05.983Z,66
2018-08-28T10:50:05.937Z,64.9
2018-08-28T10:55:05.307Z,62.4
2018-08-28T11:00:05.198Z,61.7
2018-08-28T11:05:05.550Z,61.3
2018-08-28T11:10:05.907Z,59.4
2018-08-28T11:15:05.292Z,57.8
2018-08-28T11:20:02.734Z,57.8
2018-08-28T11:25:03.221Z,57.3
2018-08-28T11:30:05.224Z,58.6
2018-08-28T11:35:02.999Z,58.6
2018-08-28T11:40:15.675Z,56.4
2018-08-28T11:45:08.368Z,56.8
2018-08-28T11:50:02.731Z,56.8
2018-08-28T11:55:05.733Z,54.6
2018-08-28T12:00:03.095Z,54.7
2018-08-28T12:05:18.824Z,55.5
2018-08-28T12:10:07.753Z,57
2018-08-28T12:15:03.057Z,57
2018-08-28T12:20:03.552Z,56.7
2018-08-28T12:25:02.853Z,57.2
2018-08-28T12:30:05.747Z,55.4
2018-08-28T12:35:06.094Z,56.2
2018-08-28T12:40:03.134Z,56.2
2018-08-28T12:45:08.329Z,55
2018-08-28T12:50:02.629Z,55
2018-08-28T12:55:08.298Z,53.5
2018-08-28T13:00:02.721Z,51.8
2018-08-28T13:05:03.259Z,53.9
2018-08-28T13:10:10.638Z,54.5
2018-08-28T13:15:03.214Z,54.6
2018-08-28T13:20:12.726Z,54.9
2018-08-28T13:25:15.581Z,54
2018-08-28T13:30:15.568Z,54.3
2018-08-28T13:35:03.121Z,54.3
2018-08-28T13:40:02.810Z,54.5
2018-08-28T13:45:03.263Z,55.8
2018-08-28T13:50:03.501Z,55.3
2018-08-28T13:55:03.132Z,55
2018-08-28T14:00:03.622Z,53.6
2018-08-28T14:05:02.592Z,53.6
2018-08-28T14:10:03.255Z,54.4
2018-08-28T14:15:02.997Z,52.4
2018-08-28T14:20:20.372Z,44.6
2018-08-28T14:25:03.235Z,44.6
2018-08-28T14:30:08.613Z,40.8
2018-08-28T14:35:02.840Z,40.7
2018-08-28T14:40:02.571Z,40.3
2018-08-28T14:45:02.936Z,39.2
2018-08-28T14:50:08.448Z,41.9
2018-08-28T14:55:03.172Z,41.9
2018-08-28T15:00:11.043Z,47.7
2018-08-28T15:05:05.967Z,43.2
2018-08-28T15:10:02.804Z,43.2
2018-08-28T15:15:10.633Z,43.3
2018-08-28T15:20:02.986Z,43.3
2018-08-28T15:25:05.808Z,45.8
2018-08-28T15:30:03.037Z,45.7
2018-08-28T15:35:03.315Z,47.5
2018-08-28T15:40:05.566Z,47.9
2018-08-28T15:45:03.214Z,48
2018-08-28T15:50:06.002Z,48.2
2018-08-28T15:55:27.985Z,49.5
2018-08-28T16:00:05.733Z,50
2018-08-28T16:05:03.446Z,50
2018-08-28T16:10:05.694Z,50.3
2018-08-28T16:15:03.370Z,50.2
2018-08-28T16:20:07.705Z,49.1
2018-08-28T16:25:07.992Z,49.4
2018-08-28T16:30:03.460Z,49.4
2018-08-28T16:35:10.322Z,49.8
2018-08-28T16:40:15.633Z,50.3
2018-08-28T16:45:08.325Z,50
2018-08-28T16:50:10.513Z,48.7
2018-08-28T16:55:03.174Z,48.8
2018-08-28T17:00:06.012Z,49.3
2018-08-28T17:05:02.693Z,49.4
2018-08-28T17:10:18.529Z,50.5
2018-08-28T17:15:05.726Z,52.5
2018-08-28T17:20:08.138Z,53.8
2018-08-28T17:25:05.787Z,54.6
2018-08-28T17:30:03.037Z,54.6
2018-08-28T17:35:03.286Z,56.2
2018-08-28T17:40:05.529Z,57.3
2018-08-28T17:45:03.308Z,57.2
2018-08-28T17:50:02.558Z,59.5
2018-08-28T17:55:02.808Z,60.8
2018-08-28T18:00:03.428Z,62.5
2018-08-28T18:05:05.154Z,63.3
2018-08-28T18:10:05.383Z,62.7
2018-08-28T18:15:08.161Z,63.9
2018-08-28T18:20:02.668Z,63.9
2018-08-28T18:25:10.461Z,66.7
2018-08-28T18:30:02.668Z,66.7
2018-08-28T18:35:02.970Z,67.7
2018-08-28T18:40:05.149Z,70
2018-08-28T18:45:02.843Z,70.1
2018-08-28T18:50:20.832Z,72.1
2018-08-28T18:55:03.297Z,72.1
2018-08-28T19:00:13.147Z,74.2
2018-08-28T19:05:03.139Z,74.2
2018-08-28T19:10:07.889Z,76.9
2018-08-28T19:15:03.078Z,76.9
2018-08-28T19:20:05.872Z,79
2018-08-28T19:25:05.277Z,80.7
2018-08-28T19:30:08.571Z,81.7
2018-08-28T19:35:05.263Z,82.5
2018-08-28T19:40:03.001Z,82.5
2018-08-28T19:45:05.126Z,83.9
2018-08-28T19:50:16.036Z,84.4
2018-08-28T19:55:02.560Z,84.4
2018-08-28T20:00:08.168Z,86
2018-08-28T20:05:03.328Z,85.9
2018-08-28T20:10:18.165Z,85.2
2018-08-28T20:15:10.828Z,86.6
2018-08-28T20:20:05.829Z,87.2
2018-08-28T20:25:05.817Z,88
2018-08-28T20:30:03.015Z,87.9
2018-08-28T20:35:03.276Z,89.4
2018-08-28T20:40:15.597Z,13.6
2018-08-28T20:45:05.620Z,90.6
2018-08-28T20:50:12.934Z,90.8
2018-08-28T20:55:03.066Z,90.8
2018-08-28T21:00:03.276Z,91.2
2018-08-28T21:05:03.459Z,91.6
2018-08-28T21:10:15.912Z,92.4
2018-08-28T21:15:05.962Z,92.8
2018-08-28T21:20:03.240Z,92.8
2018-08-28T21:25:03.472Z,93
2018-08-28T21:30:02.663Z,93.2
2018-08-28T21:35:02.890Z,93.7
2018-08-28T21:40:03.508Z,93.9
2018-08-28T21:45:02.930Z,94.1
2018-08-28T21:50:05.856Z,94.4
2018-08-28T21:55:02.551Z,94.5
2018-08-28T22:00:02.793Z,94.7
2018-08-28T22:05:05.542Z,95.1
2018-08-28T22:10:03.195Z,95
2018-08-28T22:15:13.493Z,95.1
2018-08-28T22:20:10.391Z,95.4
2018-08-28T22:25:13.168Z,95.6
2018-08-28T22:30:03.385Z,95.6
2018-08-28T22:35:02.581Z,95.8
2018-08-28T22:40:05.751Z,96.3
2018-08-28T22:45:03.421Z,96.2
2018-08-28T22:50:05.173Z,96.4
2018-08-28T22:55:05.413Z,96.6
2018-08-28T23:00:02.578Z,96.6
2018-08-28T23:05:05.364Z,96.9
2018-08-28T23:10:10.595Z,97.1
2018-08-28T23:15:03.343Z,97
2018-08-28T23:20:05.180Z,97.2
2018-08-28T23:25:07.811Z,97.4
2018-08-28T23:30:03.050Z,97.4
2018-08-28T23:35:03.230Z,97.4
2018-08-28T23:40:02.866Z,97.6
2018-08-28T23:45:03.127Z,97.7
2018-08-28T23:50:05.819Z,98.2
2018-08-28T23:55:02.513Z,98.2
